sensor_id;sensor_type;location;lat;lon;timestamp;P1;durP1;ratioP1;P2;durP2;ratioP2
43248;SDS011;29216;51.248;6.808;2023-05-07T00:02:14;6.13;;;3.78;;
43248;SDS011;29216;51.248;6.808;2023-05-07T00:04:40;5.75;;;3.83;;
43248;SDS011;29216;51.248;6.808;2023-05-07T00:07:06;5.75;;;3.45;;
43248;SDS011;29216;51.248;6.808;2023-05-07T00:09:32;5.78;;;3.63;;
43248;SDS011;29216;51.248;6.808;2023-05-07T00:11:58;4.35;;;3.42;;
43248;SDS011;29216;51.248;6.808;2023-05-07T00:14:24;4.88;;;3.55;;
43248;SDS011;29216;51.248;6.808;2023-05-07T00:16:50;5.43;;;4.28;;
43248;SDS011;29216;51.248;6.808;2023-05-07T00:19:16;7.65;;;3.70;;
43248;SDS011;29216;51.248;6.808;2023-05-07T00:21:42;4.55;;;3.47;;
43248;SDS011;29216;51.248;6.808;2023-05-07T00:24:08;4.25;;;3.58;;
43248;SDS011;29216;51.248;6.808;2023-05-07T00:26:34;6.55;;;3.40;;
43248;SDS011;29216;51.248;6.808;2023-05-07T00:29:00;7.07;;;3.67;;
43248;SDS011;29216;51.248;6.808;2023-05-07T00:31:26;4.93;;;3.90;;
43248;SDS011;29216;51.248;6.808;2023-05-07T00:33:53;6.05;;;3.67;;
43248;SDS011;29216;51.248;6.808;2023-05-07T00:36:19;5.97;;;3.60;;
43248;SDS011;29216;51.248;6.808;2023-05-07T00:38:45;5.82;;;3.80;;
43248;SDS011;29216;51.248;6.808;2023-05-07T00:41:11;6.05;;;3.58;;
43248;SDS011;29216;51.248;6.808;2023-05-07T00:43:37;5.97;;;3.78;;
43248;SDS011;29216;51.248;6.808;2023-05-07T00:46:03;6.25;;;4.25;;
43248;SDS011;29216;51.248;6.808;2023-05-07T00:48:30;6.13;;;3.40;;
43248;SDS011;29216;51.248;6.808;2023-05-07T00:50:56;5.93;;;3.70;;
43248;SDS011;29216;51.248;6.808;2023-05-07T00:53:22;8.35;;;3.83;;
43248;SDS011;29216;51.248;6.808;2023-05-07T00:55:48;4.78;;;3.70;;
43248;SDS011;29216;51.248;6.808;2023-05-07T00:58:15;4.93;;;3.92;;
43248;SDS011;29216;51.248;6.808;2023-05-07T01:00:41;4.78;;;3.40;;
43248;SDS011;29216;51.248;6.808;2023-05-07T01:03:07;5.28;;;3.50;;
43248;SDS011;29216;51.248;6.808;2023-05-07T01:05:33;7.10;;;4.00;;
43248;SDS011;29216;51.248;6.808;2023-05-07T01:07:59;5.97;;;3.83;;
43248;SDS011;29216;51.248;6.808;2023-05-07T01:10:26;5.80;;;3.50;;
43248;SDS011;29216;51.248;6.808;2023-05-07T01:12:52;4.97;;;3.60;;
43248;SDS011;29216;51.248;6.808;2023-05-07T01:15:19;5.60;;;4.00;;
43248;SDS011;29216;51.248;6.808;2023-05-07T01:17:45;5.43;;;3.45;;
43248;SDS011;29216;51.248;6.808;2023-05-07T01:20:11;5.65;;;3.60;;
43248;SDS011;29216;51.248;6.808;2023-05-07T01:22:39;4.72;;;3.80;;
43248;SDS011;29216;51.248;6.808;2023-05-07T01:25:06;4.82;;;3.50;;
43248;SDS011;29216;51.248;6.808;2023-05-07T01:27:35;5.50;;;3.78;;
43248;SDS011;29216;51.248;6.808;2023-05-07T01:30:04;5.55;;;4.18;;
43248;SDS011;29216;51.248;6.808;2023-05-07T01:35:10;6.00;;;3.80;;
43248;SDS011;29216;51.248;6.808;2023-05-07T01:37:36;7.32;;;3.80;;
43248;SDS011;29216;51.248;6.808;2023-05-07T01:40:03;4.78;;;3.72;;
43248;SDS011;29216;51.248;6.808;2023-05-07T01:42:29;5.57;;;3.95;;
43248;SDS011;29216;51.248;6.808;2023-05-07T01:44:56;6.68;;;4.38;;
43248;SDS011;29216;51.248;6.808;2023-05-07T01:47:22;6.82;;;4.10;;
43248;SDS011;29216;51.248;6.808;2023-05-07T01:49:48;4.93;;;3.63;;
43248;SDS011;29216;51.248;6.808;2023-05-07T01:52:14;4.95;;;3.80;;
43248;SDS011;29216;51.248;6.808;2023-05-07T01:54:41;5.88;;;3.97;;
43248;SDS011;29216;51.248;6.808;2023-05-07T01:57:07;5.45;;;4.30;;
43248;SDS011;29216;51.248;6.808;2023-05-07T01:59:33;5.63;;;3.80;;
43248;SDS011;29216;51.248;6.808;2023-05-07T02:01:59;5.85;;;4.05;;
43248;SDS011;29216;51.248;6.808;2023-05-07T02:04:26;6.30;;;4.00;;
43248;SDS011;29216;51.248;6.808;2023-05-07T02:06:52;5.88;;;4.03;;
43248;SDS011;29216;51.248;6.808;2023-05-07T02:09:18;5.68;;;4.60;;
43248;SDS011;29216;51.248;6.808;2023-05-07T02:11:44;4.45;;;3.80;;
43248;SDS011;29216;51.248;6.808;2023-05-07T02:14:10;7.28;;;3.65;;
43248;SDS011;29216;51.248;6.808;2023-05-07T02:16:36;6.63;;;3.78;;
43248;SDS011;29216;51.248;6.808;2023-05-07T02:19:02;7.30;;;3.95;;
43248;SDS011;29216;51.248;6.808;2023-05-07T02:21:28;4.30;;;3.28;;
43248;SDS011;29216;51.248;6.808;2023-05-07T02:23:54;6.35;;;3.55;;
43248;SDS011;29216;51.248;6.808;2023-05-07T02:26:20;4.32;;;3.33;;
43248;SDS011;29216;51.248;6.808;2023-05-07T02:28:46;4.15;;;3.22;;
43248;SDS011;29216;51.248;6.808;2023-05-07T02:31:12;6.25;;;3.53;;
43248;SDS011;29216;51.248;6.808;2023-05-07T02:33:38;4.47;;;3.53;;
43248;SDS011;29216;51.248;6.808;2023-05-07T02:36:13;4.85;;;3.33;;
43248;SDS011;29216;51.248;6.808;2023-05-07T02:38:39;4.03;;;3.60;;
43248;SDS011;29216;51.248;6.808;2023-05-07T02:41:05;4.45;;;3.38;;
43248;SDS011;29216;51.248;6.808;2023-05-07T02:43:31;3.88;;;3.30;;
43248;SDS011;29216;51.248;6.808;2023-05-07T02:48:27;4.28;;;3.20;;
43248;SDS011;29216;51.248;6.808;2023-05-07T02:50:53;4.30;;;3.30;;
43248;SDS011;29216;51.248;6.808;2023-05-07T02:53:19;4.43;;;4.03;;
43248;SDS011;29216;51.248;6.808;2023-05-07T02:55:45;5.63;;;3.10;;
43248;SDS011;29216;51.248;6.808;2023-05-07T02:58:11;4.35;;;3.17;;
43248;SDS011;29216;51.248;6.808;2023-05-07T03:00:37;3.35;;;3.05;;
43248;SDS011;29216;51.248;6.808;2023-05-07T03:03:03;5.03;;;3.30;;
43248;SDS011;29216;51.248;6.808;2023-05-07T03:05:29;5.85;;;2.80;;
43248;SDS011;29216;51.248;6.808;2023-05-07T03:07:55;3.92;;;3.03;;
43248;SDS011;29216;51.248;6.808;2023-05-07T03:10:21;3.30;;;3.00;;
43248;SDS011;29216;51.248;6.808;2023-05-07T03:12:47;4.20;;;2.95;;
43248;SDS011;29216;51.248;6.808;2023-05-07T03:15:14;4.75;;;3.20;;
43248;SDS011;29216;51.248;6.808;2023-05-07T03:17:40;6.28;;;3.22;;
43248;SDS011;29216;51.248;6.808;2023-05-07T03:20:06;3.50;;;3.08;;
43248;SDS011;29216;51.248;6.808;2023-05-07T03:22:32;5.88;;;3.28;;
43248;SDS011;29216;51.248;6.808;2023-05-07T03:24:58;4.43;;;3.03;;
43248;SDS011;29216;51.248;6.808;2023-05-07T03:27:24;3.80;;;2.80;;
43248;SDS011;29216;51.248;6.808;2023-05-07T03:29:50;4.70;;;3.00;;
43248;SDS011;29216;51.248;6.808;2023-05-07T03:32:16;4.30;;;2.92;;
43248;SDS011;29216;51.248;6.808;2023-05-07T03:34:42;4.85;;;3.20;;
43248;SDS011;29216;51.248;6.808;2023-05-07T03:37:08;4.47;;;3.10;;
43248;SDS011;29216;51.248;6.808;2023-05-07T03:39:35;4.80;;;2.83;;
43248;SDS011;29216;51.248;6.808;2023-05-07T03:42:01;4.80;;;3.03;;
43248;SDS011;29216;51.248;6.808;2023-05-07T03:44:27;4.15;;;2.80;;
43248;SDS011;29216;51.248;6.808;2023-05-07T03:46:53;5.28;;;4.03;;
43248;SDS011;29216;51.248;6.808;2023-05-07T03:49:20;3.10;;;2.50;;
43248;SDS011;29216;51.248;6.808;2023-05-07T03:51:46;6.35;;;3.05;;
43248;SDS011;29216;51.248;6.808;2023-05-07T03:54:12;5.07;;;2.88;;
43248;SDS011;29216;51.248;6.808;2023-05-07T03:56:38;4.90;;;2.80;;
43248;SDS011;29216;51.248;6.808;2023-05-07T03:59:05;3.55;;;2.90;;
43248;SDS011;29216;51.248;6.808;2023-05-07T04:01:31;3.20;;;2.83;;
43248;SDS011;29216;51.248;6.808;2023-05-07T04:03:57;5.63;;;2.83;;
43248;SDS011;29216;51.248;6.808;2023-05-07T04:06:23;4.35;;;2.80;;
43248;SDS011;29216;51.248;6.808;2023-05-07T04:08:49;5.45;;;3.03;;
43248;SDS011;29216;51.248;6.808;2023-05-07T04:11:15;3.33;;;2.65;;
43248;SDS011;29216;51.248;6.808;2023-05-07T04:13:41;3.75;;;2.35;;
43248;SDS011;29216;51.248;6.808;2023-05-07T04:16:08;6.55;;;2.92;;
43248;SDS011;29216;51.248;6.808;2023-05-07T04:18:34;6.68;;;2.92;;
43248;SDS011;29216;51.248;6.808;2023-05-07T04:21:00;4.57;;;2.70;;
43248;SDS011;29216;51.248;6.808;2023-05-07T04:23:26;3.05;;;2.75;;
43248;SDS011;29216;51.248;6.808;2023-05-07T04:25:52;3.67;;;2.67;;
43248;SDS011;29216;51.248;6.808;2023-05-07T04:28:19;4.18;;;2.70;;
43248;SDS011;29216;51.248;6.808;2023-05-07T04:30:45;4.03;;;2.85;;
43248;SDS011;29216;51.248;6.808;2023-05-07T04:33:11;3.55;;;2.70;;
43248;SDS011;29216;51.248;6.808;2023-05-07T04:35:37;4.07;;;3.08;;
43248;SDS011;29216;51.248;6.808;2023-05-07T04:38:03;3.60;;;2.70;;
43248;SDS011;29216;51.248;6.808;2023-05-07T04:40:29;2.53;;;2.30;;
43248;SDS011;29216;51.248;6.808;2023-05-07T04:42:55;4.70;;;2.80;;
43248;SDS011;29216;51.248;6.808;2023-05-07T04:45:21;2.50;;;2.28;;
43248;SDS011;29216;51.248;6.808;2023-05-07T04:47:47;3.63;;;2.65;;
43248;SDS011;29216;51.248;6.808;2023-05-07T04:50:13;3.60;;;2.50;;
43248;SDS011;29216;51.248;6.808;2023-05-07T04:52:39;4.78;;;2.25;;
43248;SDS011;29216;51.248;6.808;2023-05-07T04:55:05;3.15;;;2.45;;
43248;SDS011;29216;51.248;6.808;2023-05-07T04:57:32;4.13;;;2.50;;
43248;SDS011;29216;51.248;6.808;2023-05-07T04:59:58;4.25;;;2.60;;
43248;SDS011;29216;51.248;6.808;2023-05-07T05:02:24;5.80;;;2.80;;
43248;SDS011;29216;51.248;6.808;2023-05-07T05:04:50;3.67;;;2.38;;
43248;SDS011;29216;51.248;6.808;2023-05-07T05:07:16;2.50;;;2.25;;
43248;SDS011;29216;51.248;6.808;2023-05-07T05:09:42;4.13;;;2.70;;
43248;SDS011;29216;51.248;6.808;2023-05-07T05:12:08;3.38;;;2.35;;
43248;SDS011;29216;51.248;6.808;2023-05-07T05:14:34;3.63;;;2.50;;
43248;SDS011;29216;51.248;6.808;2023-05-07T05:17:00;5.57;;;2.60;;
43248;SDS011;29216;51.248;6.808;2023-05-07T05:19:26;4.10;;;2.35;;
43248;SDS011;29216;51.248;6.808;2023-05-07T05:21:54;3.53;;;2.50;;
43248;SDS011;29216;51.248;6.808;2023-05-07T05:24:21;2.60;;;2.30;;
43248;SDS011;29216;51.248;6.808;2023-05-07T05:26:47;4.50;;;2.30;;
43248;SDS011;29216;51.248;6.808;2023-05-07T05:29:13;5.18;;;2.90;;
43248;SDS011;29216;51.248;6.808;2023-05-07T05:31:39;4.22;;;2.30;;
43248;SDS011;29216;51.248;6.808;2023-05-07T05:34:06;4.88;;;2.28;;
43248;SDS011;29216;51.248;6.808;2023-05-07T05:36:32;15.77;;;4.35;;
43248;SDS011;29216;51.248;6.808;2023-05-07T05:38:58;4.75;;;2.45;;
43248;SDS011;29216;51.248;6.808;2023-05-07T05:41:24;2.97;;;2.47;;
43248;SDS011;29216;51.248;6.808;2023-05-07T05:43:50;3.75;;;2.45;;
43248;SDS011;29216;51.248;6.808;2023-05-07T05:46:16;3.05;;;2.22;;
43248;SDS011;29216;51.248;6.808;2023-05-07T05:48:42;2.97;;;2.30;;
43248;SDS011;29216;51.248;6.808;2023-05-07T05:51:14;2.55;;;2.20;;
43248;SDS011;29216;51.248;6.808;2023-05-07T05:53:40;3.50;;;2.10;;
43248;SDS011;29216;51.248;6.808;2023-05-07T05:56:07;3.30;;;2.28;;
43248;SDS011;29216;51.248;6.808;2023-05-07T05:58:33;2.78;;;2.20;;
43248;SDS011;29216;51.248;6.808;2023-05-07T06:00:59;8.23;;;2.30;;
43248;SDS011;29216;51.248;6.808;2023-05-07T06:03:25;4.93;;;2.05;;
43248;SDS011;29216;51.248;6.808;2023-05-07T06:05:51;2.35;;;1.90;;
43248;SDS011;29216;51.248;6.808;2023-05-07T06:08:17;3.50;;;2.05;;
43248;SDS011;29216;51.248;6.808;2023-05-07T06:10:43;1.85;;;1.75;;
43248;SDS011;29216;51.248;6.808;2023-05-07T06:13:09;2.38;;;2.03;;
43248;SDS011;29216;51.248;6.808;2023-05-07T06:15:35;3.33;;;2.20;;
43248;SDS011;29216;51.248;6.808;2023-05-07T06:18:01;2.38;;;2.10;;
43248;SDS011;29216;51.248;6.808;2023-05-07T06:20:27;3.63;;;2.05;;
43248;SDS011;29216;51.248;6.808;2023-05-07T06:22:53;2.80;;;1.92;;
43248;SDS011;29216;51.248;6.808;2023-05-07T06:25:19;2.35;;;2.10;;
43248;SDS011;29216;51.248;6.808;2023-05-07T06:27:45;2.97;;;2.30;;
43248;SDS011;29216;51.248;6.808;2023-05-07T06:30:11;4.32;;;2.15;;
43248;SDS011;29216;51.248;6.808;2023-05-07T06:32:37;1.98;;;1.77;;
43248;SDS011;29216;51.248;6.808;2023-05-07T06:35:04;2.72;;;1.77;;
43248;SDS011;29216;51.248;6.808;2023-05-07T06:37:30;2.90;;;2.10;;
43248;SDS011;29216;51.248;6.808;2023-05-07T06:39:56;1.92;;;1.83;;
43248;SDS011;29216;51.248;6.808;2023-05-07T06:42:22;2.70;;;1.90;;
43248;SDS011;29216;51.248;6.808;2023-05-07T06:44:48;2.35;;;2.03;;
43248;SDS011;29216;51.248;6.808;2023-05-07T06:47:14;3.70;;;2.03;;
43248;SDS011;29216;51.248;6.808;2023-05-07T06:49:40;3.00;;;1.92;;
43248;SDS011;29216;51.248;6.808;2023-05-07T06:52:06;4.55;;;2.13;;
43248;SDS011;29216;51.248;6.808;2023-05-07T06:54:37;2.30;;;2.10;;
43248;SDS011;29216;51.248;6.808;2023-05-07T06:57:03;3.45;;;2.05;;
43248;SDS011;29216;51.248;6.808;2023-05-07T06:59:29;8.75;;;2.10;;
43248;SDS011;29216;51.248;6.808;2023-05-07T07:01:55;1.80;;;1.70;;
43248;SDS011;29216;51.248;6.808;2023-05-07T07:04:21;4.13;;;2.17;;
43248;SDS011;29216;51.248;6.808;2023-05-07T07:06:48;2.92;;;2.13;;
43248;SDS011;29216;51.248;6.808;2023-05-07T07:09:14;2.58;;;2.13;;
43248;SDS011;29216;51.248;6.808;2023-05-07T07:11:40;2.05;;;1.65;;
43248;SDS011;29216;51.248;6.808;2023-05-07T07:14:06;2.50;;;1.70;;
43248;SDS011;29216;51.248;6.808;2023-05-07T07:16:32;2.03;;;1.83;;
43248;SDS011;29216;51.248;6.808;2023-05-07T07:18:58;1.80;;;1.70;;
43248;SDS011;29216;51.248;6.808;2023-05-07T07:21:25;2.17;;;2.00;;
43248;SDS011;29216;51.248;6.808;2023-05-07T07:23:50;1.90;;;1.80;;
43248;SDS011;29216;51.248;6.808;2023-05-07T07:26:17;1.63;;;1.52;;
43248;SDS011;29216;51.248;6.808;2023-05-07T07:28:43;2.08;;;1.88;;
43248;SDS011;29216;51.248;6.808;2023-05-07T07:31:10;3.05;;;1.70;;
43248;SDS011;29216;51.248;6.808;2023-05-07T07:33:36;2.30;;;1.98;;
43248;SDS011;29216;51.248;6.808;2023-05-07T07:36:02;2.33;;;1.67;;
43248;SDS011;29216;51.248;6.808;2023-05-07T07:38:28;1.95;;;1.70;;
43248;SDS011;29216;51.248;6.808;2023-05-07T07:40:54;3.90;;;1.70;;
43248;SDS011;29216;51.248;6.808;2023-05-07T07:43:20;2.03;;;1.80;;
43248;SDS011;29216;51.248;6.808;2023-05-07T07:45:46;2.25;;;1.90;;
43248;SDS011;29216;51.248;6.808;2023-05-07T07:48:12;2.35;;;1.75;;
43248;SDS011;29216;51.248;6.808;2023-05-07T07:50:41;2.13;;;1.83;;
43248;SDS011;29216;51.248;6.808;2023-05-07T07:53:07;2.38;;;1.90;;
43248;SDS011;29216;51.248;6.808;2023-05-07T07:55:37;2.78;;;2.13;;
43248;SDS011;29216;51.248;6.808;2023-05-07T07:58:03;2.55;;;1.90;;
43248;SDS011;29216;51.248;6.808;2023-05-07T08:00:29;2.03;;;1.75;;
43248;SDS011;29216;51.248;6.808;2023-05-07T08:02:55;2.40;;;1.70;;
43248;SDS011;29216;51.248;6.808;2023-05-07T08:05:21;3.53;;;1.95;;
43248;SDS011;29216;51.248;6.808;2023-05-07T08:07:47;2.55;;;1.80;;
43248;SDS011;29216;51.248;6.808;2023-05-07T08:10:17;2.90;;;1.95;;
43248;SDS011;29216;51.248;6.808;2023-05-07T08:12:47;3.58;;;1.85;;
43248;SDS011;29216;51.248;6.808;2023-05-07T08:15:16;2.15;;;1.92;;
43248;SDS011;29216;51.248;6.808;2023-05-07T08:17:42;6.30;;;2.03;;
43248;SDS011;29216;51.248;6.808;2023-05-07T08:20:08;2.47;;;1.67;;
43248;SDS011;29216;51.248;6.808;2023-05-07T08:22:35;3.92;;;2.15;;
43248;SDS011;29216;51.248;6.808;2023-05-07T08:25:01;1.90;;;1.70;;
43248;SDS011;29216;51.248;6.808;2023-05-07T08:27:30;2.20;;;1.77;;
43248;SDS011;29216;51.248;6.808;2023-05-07T08:29:56;5.25;;;2.20;;
43248;SDS011;29216;51.248;6.808;2023-05-07T08:32:22;4.00;;;2.10;;
43248;SDS011;29216;51.248;6.808;2023-05-07T08:34:50;2.55;;;1.92;;
43248;SDS011;29216;51.248;6.808;2023-05-07T08:37:16;2.13;;;1.80;;
43248;SDS011;29216;51.248;6.808;2023-05-07T08:39:42;2.53;;;1.90;;
43248;SDS011;29216;51.248;6.808;2023-05-07T08:42:09;2.17;;;1.70;;
43248;SDS011;29216;51.248;6.808;2023-05-07T08:44:35;3.13;;;1.70;;
43248;SDS011;29216;51.248;6.808;2023-05-07T08:47:03;1.95;;;1.80;;
43248;SDS011;29216;51.248;6.808;2023-05-07T08:49:31;3.30;;;1.90;;
43248;SDS011;29216;51.248;6.808;2023-05-07T08:51:59;2.17;;;1.90;;
43248;SDS011;29216;51.248;6.808;2023-05-07T08:54:25;2.47;;;1.80;;
43248;SDS011;29216;51.248;6.808;2023-05-07T08:56:54;1.85;;;1.63;;
43248;SDS011;29216;51.248;6.808;2023-05-07T08:59:20;2.13;;;1.90;;
43248;SDS011;29216;51.248;6.808;2023-05-07T09:01:46;2.83;;;1.80;;
43248;SDS011;29216;51.248;6.808;2023-05-07T09:04:12;3.50;;;1.90;;
43248;SDS011;29216;51.248;6.808;2023-05-07T09:06:38;2.40;;;1.55;;
43248;SDS011;29216;51.248;6.808;2023-05-07T09:09:07;4.47;;;2.05;;
43248;SDS011;29216;51.248;6.808;2023-05-07T09:11:33;2.05;;;1.80;;
43248;SDS011;29216;51.248;6.808;2023-05-07T09:13:59;5.15;;;2.47;;
43248;SDS011;29216;51.248;6.808;2023-05-07T09:16:29;4.13;;;2.30;;
43248;SDS011;29216;51.248;6.808;2023-05-07T09:18:57;2.38;;;2.10;;
43248;SDS011;29216;51.248;6.808;2023-05-07T09:21:23;3.13;;;1.73;;
43248;SDS011;29216;51.248;6.808;2023-05-07T09:23:54;2.72;;;1.83;;
43248;SDS011;29216;51.248;6.808;2023-05-07T09:26:21;6.13;;;1.90;;
43248;SDS011;29216;51.248;6.808;2023-05-07T09:28:47;2.78;;;2.13;;
43248;SDS011;29216;51.248;6.808;2023-05-07T09:31:13;2.72;;;2.00;;
43248;SDS011;29216;51.248;6.808;2023-05-07T09:33:39;2.20;;;2.00;;
43248;SDS011;29216;51.248;6.808;2023-05-07T09:36:06;3.55;;;1.90;;
43248;SDS011;29216;51.248;6.808;2023-05-07T09:38:33;2.58;;;1.92;;
43248;SDS011;29216;51.248;6.808;2023-05-07T09:41:02;4.95;;;2.50;;
43248;SDS011;29216;51.248;6.808;2023-05-07T09:43:31;2.63;;;2.20;;
43248;SDS011;29216;51.248;6.808;2023-05-07T09:46:00;2.80;;;2.00;;
43248;SDS011;29216;51.248;6.808;2023-05-07T09:48:26;2.42;;;2.00;;
43248;SDS011;29216;51.248;6.808;2023-05-07T09:50:54;2.25;;;2.00;;
43248;SDS011;29216;51.248;6.808;2023-05-07T09:53:24;1.70;;;1.60;;
43248;SDS011;29216;51.248;6.808;2023-05-07T09:55:50;3.75;;;2.00;;
43248;SDS011;29216;51.248;6.808;2023-05-07T09:58:16;2.83;;;2.05;;
43248;SDS011;29216;51.248;6.808;2023-05-07T10:00:44;7.45;;;1.92;;
43248;SDS011;29216;51.248;6.808;2023-05-07T10:03:11;3.20;;;1.90;;
43248;SDS011;29216;51.248;6.808;2023-05-07T10:05:40;2.03;;;1.80;;
43248;SDS011;29216;51.248;6.808;2023-05-07T10:08:06;4.90;;;2.20;;
43248;SDS011;29216;51.248;6.808;2023-05-07T10:10:33;3.15;;;2.13;;
43248;SDS011;29216;51.248;6.808;2023-05-07T10:13:00;3.13;;;1.90;;
43248;SDS011;29216;51.248;6.808;2023-05-07T10:15:27;4.65;;;1.85;;
43248;SDS011;29216;51.248;6.808;2023-05-07T10:17:55;2.72;;;1.80;;
43248;SDS011;29216;51.248;6.808;2023-05-07T10:20:21;2.05;;;1.83;;
43248;SDS011;29216;51.248;6.808;2023-05-07T10:22:49;2.67;;;2.03;;
43248;SDS011;29216;51.248;6.808;2023-05-07T10:25:18;3.38;;;2.00;;
43248;SDS011;29216;51.248;6.808;2023-05-07T10:27:45;2.10;;;1.70;;
43248;SDS011;29216;51.248;6.808;2023-05-07T10:30:15;3.40;;;2.10;;
43248;SDS011;29216;51.248;6.808;2023-05-07T10:32:47;5.63;;;2.08;;
43248;SDS011;29216;51.248;6.808;2023-05-07T10:35:22;3.08;;;1.90;;
43248;SDS011;29216;51.248;6.808;2023-05-07T10:37:50;1.70;;;1.60;;
43248;SDS011;29216;51.248;6.808;2023-05-07T10:40:16;4.95;;;1.90;;
43248;SDS011;29216;51.248;6.808;2023-05-07T10:43:00;1.60;;;1.50;;
43248;SDS011;29216;51.248;6.808;2023-05-07T10:45:27;3.13;;;1.90;;
43248;SDS011;29216;51.248;6.808;2023-05-07T10:48:06;3.83;;;1.98;;
43248;SDS011;29216;51.248;6.808;2023-05-07T10:50:33;2.85;;;1.85;;
43248;SDS011;29216;51.248;6.808;2023-05-07T10:55:44;3.90;;;1.90;;
43248;SDS011;29216;51.248;6.808;2023-05-07T10:58:29;1.88;;;1.73;;
43248;SDS011;29216;51.248;6.808;2023-05-07T11:01:00;2.78;;;1.90;;
43248;SDS011;29216;51.248;6.808;2023-05-07T11:03:26;5.13;;;1.83;;
43248;SDS011;29216;51.248;6.808;2023-05-07T11:06:14;1.52;;;1.40;;
43248;SDS011;29216;51.248;6.808;2023-05-07T11:08:57;2.30;;;1.75;;
43248;SDS011;29216;51.248;6.808;2023-05-07T11:11:43;2.75;;;1.70;;
43248;SDS011;29216;51.248;6.808;2023-05-07T11:14:09;2.92;;;1.80;;
43248;SDS011;29216;51.248;6.808;2023-05-07T11:16:35;3.95;;;2.10;;
43248;SDS011;29216;51.248;6.808;2023-05-07T11:19:02;3.25;;;1.80;;
43248;SDS011;29216;51.248;6.808;2023-05-07T11:21:38;2.55;;;1.92;;
43248;SDS011;29216;51.248;6.808;2023-05-07T11:24:05;4.50;;;1.80;;
43248;SDS011;29216;51.248;6.808;2023-05-07T11:26:42;2.03;;;1.83;;
43248;SDS011;29216;51.248;6.808;2023-05-07T11:29:12;2.95;;;1.63;;
43248;SDS011;29216;51.248;6.808;2023-05-07T11:31:38;2.90;;;1.80;;
43248;SDS011;29216;51.248;6.808;2023-05-07T11:34:04;2.28;;;1.77;;
43248;SDS011;29216;51.248;6.808;2023-05-07T11:36:31;2.80;;;1.70;;
43248;SDS011;29216;51.248;6.808;2023-05-07T11:39:01;2.15;;;1.80;;
43248;SDS011;29216;51.248;6.808;2023-05-07T11:41:33;1.70;;;1.60;;
43248;SDS011;29216;51.248;6.808;2023-05-07T11:44:00;3.13;;;1.63;;
43248;SDS011;29216;51.248;6.808;2023-05-07T11:46:27;2.72;;;1.85;;
43248;SDS011;29216;51.248;6.808;2023-05-07T11:48:53;2.53;;;1.90;;
43248;SDS011;29216;51.248;6.808;2023-05-07T11:51:20;2.05;;;1.70;;
43248;SDS011;29216;51.248;6.808;2023-05-07T11:53:46;2.08;;;1.50;;
43248;SDS011;29216;51.248;6.808;2023-05-07T11:56:13;1.80;;;1.60;;
43248;SDS011;29216;51.248;6.808;2023-05-07T11:58:40;2.85;;;1.70;;
43248;SDS011;29216;51.248;6.808;2023-05-07T12:01:10;2.33;;;1.70;;
43248;SDS011;29216;51.248;6.808;2023-05-07T12:03:36;3.63;;;1.88;;
43248;SDS011;29216;51.248;6.808;2023-05-07T12:06:04;2.85;;;1.83;;
43248;SDS011;29216;51.248;6.808;2023-05-07T12:08:31;2.25;;;1.65;;
43248;SDS011;29216;51.248;6.808;2023-05-07T12:10:57;3.47;;;2.08;;
43248;SDS011;29216;51.248;6.808;2023-05-07T12:13:24;2.60;;;1.85;;
43248;SDS011;29216;51.248;6.808;2023-05-07T12:18:23;2.25;;;1.70;;
43248;SDS011;29216;51.248;6.808;2023-05-07T12:20:50;6.45;;;2.10;;
43248;SDS011;29216;51.248;6.808;2023-05-07T12:23:16;2.17;;;1.90;;
43248;SDS011;29216;51.248;6.808;2023-05-07T12:25:42;1.80;;;1.70;;
43248;SDS011;29216;51.248;6.808;2023-05-07T12:28:13;4.60;;;1.88;;
43248;SDS011;29216;51.248;6.808;2023-05-07T12:30:43;2.15;;;1.85;;
43248;SDS011;29216;51.248;6.808;2023-05-07T12:33:09;2.20;;;2.00;;
43248;SDS011;29216;51.248;6.808;2023-05-07T12:35:36;4.10;;;2.10;;
43248;SDS011;29216;51.248;6.808;2023-05-07T12:38:04;3.80;;;2.08;;
43248;SDS011;29216;51.248;6.808;2023-05-07T12:40:37;7.10;;;1.80;;
43248;SDS011;29216;51.248;6.808;2023-05-07T12:43:03;2.65;;;1.90;;
43248;SDS011;29216;51.248;6.808;2023-05-07T12:45:29;2.40;;;2.00;;
43248;SDS011;29216;51.248;6.808;2023-05-07T12:47:55;2.92;;;1.60;;
43248;SDS011;29216;51.248;6.808;2023-05-07T12:50:22;2.97;;;1.77;;
43248;SDS011;29216;51.248;6.808;2023-05-07T12:52:48;1.98;;;1.73;;
43248;SDS011;29216;51.248;6.808;2023-05-07T12:55:15;2.83;;;1.98;;
43248;SDS011;29216;51.248;6.808;2023-05-07T12:57:42;2.75;;;1.90;;
43248;SDS011;29216;51.248;6.808;2023-05-07T13:00:08;1.95;;;1.75;;
43248;SDS011;29216;51.248;6.808;2023-05-07T13:02:39;1.90;;;1.70;;
43248;SDS011;29216;51.248;6.808;2023-05-07T13:05:05;2.22;;;1.70;;
43248;SDS011;29216;51.248;6.808;2023-05-07T13:07:32;2.30;;;1.70;;
43248;SDS011;29216;51.248;6.808;2023-05-07T13:09:58;3.90;;;2.10;;
43248;SDS011;29216;51.248;6.808;2023-05-07T13:12:23;2.53;;;1.90;;
43248;SDS011;29216;51.248;6.808;2023-05-07T13:14:49;3.47;;;2.30;;
43248;SDS011;29216;51.248;6.808;2023-05-07T13:17:15;3.50;;;2.25;;
43248;SDS011;29216;51.248;6.808;2023-05-07T13:19:43;2.85;;;2.30;;
43248;SDS011;29216;51.248;6.808;2023-05-07T13:22:09;3.65;;;2.10;;
43248;SDS011;29216;51.248;6.808;2023-05-07T13:24:35;3.80;;;2.55;;
43248;SDS011;29216;51.248;6.808;2023-05-07T13:27:01;3.17;;;2.15;;
43248;SDS011;29216;51.248;6.808;2023-05-07T13:29:28;4.40;;;2.58;;
43248;SDS011;29216;51.248;6.808;2023-05-07T13:31:56;3.97;;;2.17;;
43248;SDS011;29216;51.248;6.808;2023-05-07T13:34:22;5.47;;;2.30;;
43248;SDS011;29216;51.248;6.808;2023-05-07T13:36:48;3.35;;;2.08;;
43248;SDS011;29216;51.248;6.808;2023-05-07T13:39:14;2.67;;;2.30;;
43248;SDS011;29216;51.248;6.808;2023-05-07T13:41:40;2.10;;;1.80;;
43248;SDS011;29216;51.248;6.808;2023-05-07T13:44:06;2.25;;;1.63;;
43248;SDS011;29216;51.248;6.808;2023-05-07T13:46:32;1.70;;;1.55;;
43248;SDS011;29216;51.248;6.808;2023-05-07T13:48:58;1.90;;;1.80;;
43248;SDS011;29216;51.248;6.808;2023-05-07T13:51:24;2.10;;;1.90;;
43248;SDS011;29216;51.248;6.808;2023-05-07T13:53:50;3.50;;;2.60;;
43248;SDS011;29216;51.248;6.808;2023-05-07T13:56:17;4.45;;;2.80;;
43248;SDS011;29216;51.248;6.808;2023-05-07T13:58:43;3.97;;;2.53;;
43248;SDS011;29216;51.248;6.808;2023-05-07T14:01:09;4.35;;;3.10;;
43248;SDS011;29216;51.248;6.808;2023-05-07T14:03:35;7.22;;;3.35;;
43248;SDS011;29216;51.248;6.808;2023-05-07T14:06:03;4.05;;;2.90;;
43248;SDS011;29216;51.248;6.808;2023-05-07T14:08:29;6.18;;;3.10;;
43248;SDS011;29216;51.248;6.808;2023-05-07T14:10:55;4.60;;;2.60;;
43248;SDS011;29216;51.248;6.808;2023-05-07T14:13:21;4.70;;;2.60;;
43248;SDS011;29216;51.248;6.808;2023-05-07T14:15:47;3.50;;;2.72;;
43248;SDS011;29216;51.248;6.808;2023-05-07T14:18:14;5.03;;;2.90;;
43248;SDS011;29216;51.248;6.808;2023-05-07T14:20:40;6.28;;;3.40;;
43248;SDS011;29216;51.248;6.808;2023-05-07T14:23:08;3.28;;;2.50;;
43248;SDS011;29216;51.248;6.808;2023-05-07T14:25:34;4.28;;;2.70;;
43248;SDS011;29216;51.248;6.808;2023-05-07T14:28:00;5.03;;;2.78;;
43248;SDS011;29216;51.248;6.808;2023-05-07T14:30:26;4.05;;;2.80;;
43248;SDS011;29216;51.248;6.808;2023-05-07T14:32:52;7.63;;;3.55;;
43248;SDS011;29216;51.248;6.808;2023-05-07T14:35:18;5.82;;;3.60;;
43248;SDS011;29216;51.248;6.808;2023-05-07T14:37:44;5.72;;;4.13;;
43248;SDS011;29216;51.248;6.808;2023-05-07T14:40:10;6.85;;;4.50;;
43248;SDS011;29216;51.248;6.808;2023-05-07T14:42:36;10.30;;;5.40;;
43248;SDS011;29216;51.248;6.808;2023-05-07T14:45:02;6.20;;;5.25;;
43248;SDS011;29216;51.248;6.808;2023-05-07T14:47:28;9.15;;;4.82;;
43248;SDS011;29216;51.248;6.808;2023-05-07T14:49:54;12.65;;;5.07;;
43248;SDS011;29216;51.248;6.808;2023-05-07T14:52:22;9.57;;;4.53;;
43248;SDS011;29216;51.248;6.808;2023-05-07T14:54:48;5.72;;;3.70;;
43248;SDS011;29216;51.248;6.808;2023-05-07T14:57:14;5.03;;;3.90;;